sensor_id;sensor_type;location;lat;lon;timestamp;temperature;humidity
9403;DHT22;4741;49.834;10.740;2023-10-13T00:01:57;13.30;99.90
9403;DHT22;4741;49.834;10.740;2023-10-13T00:04:26;14.30;99.90
9403;DHT22;4741;49.834;10.740;2023-10-13T00:06:53;14.90;99.90
9403;DHT22;4741;49.834;10.740;2023-10-13T00:09:20;13.60;99.90
9403;DHT22;4741;49.834;10.740;2023-10-13T00:11:52;14.10;99.90
9403;DHT22;4741;49.834;10.740;2023-10-13T00:14:20;13.60;99.90
9403;DHT22;4741;49.834;10.740;2023-10-13T00:16:57;14.20;99.90
9403;DHT22;4741;49.834;10.740;2023-10-13T00:19:31;14.10;99.90
9403;DHT22;4741;49.834;10.740;2023-10-13T00:22:19;13.60;99.90
9403;DHT22;4741;49.834;10.740;2023-10-13T00:24:46;15.90;99.90
9403;DHT22;4741;49.834;10.740;2023-10-13T00:27:14;13.60;99.90
9403;DHT22;4741;49.834;10.740;2023-10-13T00:29:57;15.70;99.90
9403;DHT22;4741;49.834;10.740;2023-10-13T00:32:51;14.10;99.90
9403;DHT22;4741;49.834;10.740;2023-10-13T00:35:22;15.80;99.90
9403;DHT22;4741;49.834;10.740;2023-10-13T00:37:55;13.30;99.90
9403;DHT22;4741;49.834;10.740;2023-10-13T00:40:24;13.70;99.90
9403;DHT22;4741;49.834;10.740;2023-10-13T00:42:57;15.60;99.90
9403;DHT22;4741;49.834;10.740;2023-10-13T00:45:43;13.40;99.90
9403;DHT22;4741;49.834;10.740;2023-10-13T00:48:10;13.40;99.90
9403;DHT22;4741;49.834;10.740;2023-10-13T00:50:41;14.60;99.90
9403;DHT22;4741;49.834;10.740;2023-10-13T00:53:12;13.90;99.90
9403;DHT22;4741;49.834;10.740;2023-10-13T00:55:38;13.80;99.90
9403;DHT22;4741;49.834;10.740;2023-10-13T00:58:08;13.80;99.90
9403;DHT22;4741;49.834;10.740;2023-10-13T01:00:39;15.30;99.90
9403;DHT22;4741;49.834;10.740;2023-10-13T01:03:13;13.40;99.90
9403;DHT22;4741;49.834;10.740;2023-10-13T01:05:41;13.20;99.90
9403;DHT22;4741;49.834;10.740;2023-10-13T01:08:08;13.70;99.90
9403;DHT22;4741;49.834;10.740;2023-10-13T01:10:38;13.20;99.90
9403;DHT22;4741;49.834;10.740;2023-10-13T01:13:08;13.80;99.90
9403;DHT22;4741;49.834;10.740;2023-10-13T01:15:34;15.60;99.90
9403;DHT22;4741;49.834;10.740;2023-10-13T01:18:10;13.10;99.90
9403;DHT22;4741;49.834;10.740;2023-10-13T01:20:39;14.00;99.90
9403;DHT22;4741;49.834;10.740;2023-10-13T01:23:12;15.10;99.90
9403;DHT22;4741;49.834;10.740;2023-10-13T01:25:46;13.60;99.90
9403;DHT22;4741;49.834;10.740;2023-10-13T01:28:12;13.90;99.90
9403;DHT22;4741;49.834;10.740;2023-10-13T01:30:43;13.00;99.90
9403;DHT22;4741;49.834;10.740;2023-10-13T01:33:11;13.40;99.90
9403;DHT22;4741;49.834;10.740;2023-10-13T01:35:38;13.50;99.90
9403;DHT22;4741;49.834;10.740;2023-10-13T01:38:14;13.90;99.90
9403;DHT22;4741;49.834;10.740;2023-10-13T01:40:40;13.90;99.90
9403;DHT22;4741;49.834;10.740;2023-10-13T01:43:09;15.30;99.90
9403;DHT22;4741;49.834;10.740;2023-10-13T01:45:37;13.80;99.90
9403;DHT22;4741;49.834;10.740;2023-10-13T01:48:16;14.60;99.90
9403;DHT22;4741;49.834;10.740;2023-10-13T01:50:45;15.10;99.90
9403;DHT22;4741;49.834;10.740;2023-10-13T01:53:22;13.80;99.90
9403;DHT22;4741;49.834;10.740;2023-10-13T01:55:49;13.80;99.90
9403;DHT22;4741;49.834;10.740;2023-10-13T01:58:17;13.70;99.90
9403;DHT22;4741;49.834;10.740;2023-10-13T02:00:46;13.40;99.90
9403;DHT22;4741;49.834;10.740;2023-10-13T02:03:14;13.60;99.90
9403;DHT22;4741;49.834;10.740;2023-10-13T02:05:48;12.70;99.90
9403;DHT22;4741;49.834;10.740;2023-10-13T02:08:16;13.90;99.90
9403;DHT22;4741;49.834;10.740;2023-10-13T02:10:50;12.80;99.90
9403;DHT22;4741;49.834;10.740;2023-10-13T02:13:17;13.30;99.90
9403;DHT22;4741;49.834;10.740;2023-10-13T02:15:45;13.90;99.90
9403;DHT22;4741;49.834;10.740;2023-10-13T02:18:15;14.70;99.90
9403;DHT22;4741;49.834;10.740;2023-10-13T02:21:02;15.50;99.90
9403;DHT22;4741;49.834;10.740;2023-10-13T02:23:31;14.00;99.90
9403;DHT22;4741;49.834;10.740;2023-10-13T02:26:01;13.80;99.90
9403;DHT22;4741;49.834;10.740;2023-10-13T02:28:29;14.00;99.90
9403;DHT22;4741;49.834;10.740;2023-10-13T02:31:03;13.70;99.90
9403;DHT22;4741;49.834;10.740;2023-10-13T02:33:30;14.00;99.90
9403;DHT22;4741;49.834;10.740;2023-10-13T02:35:57;13.50;99.90
9403;DHT22;4741;49.834;10.740;2023-10-13T02:38:24;13.10;99.90
9403;DHT22;4741;49.834;10.740;2023-10-13T02:41:00;13.50;99.90
9403;DHT22;4741;49.834;10.740;2023-10-13T02:43:33;13.90;99.90
9403;DHT22;4741;49.834;10.740;2023-10-13T02:46:00;13.90;99.90
9403;DHT22;4741;49.834;10.740;2023-10-13T02:48:28;13.80;99.90
9403;DHT22;4741;49.834;10.740;2023-10-13T02:51:08;13.80;99.90
9403;DHT22;4741;49.834;10.740;2023-10-13T02:53:45;13.70;99.90
9403;DHT22;4741;49.834;10.740;2023-10-13T02:56:15;12.90;99.90
9403;DHT22;4741;49.834;10.740;2023-10-13T02:58:49;13.80;99.90
9403;DHT22;4741;49.834;10.740;2023-10-13T03:01:32;13.80;99.90
9403;DHT22;4741;49.834;10.740;2023-10-13T03:04:01;13.70;99.90
9403;DHT22;4741;49.834;10.740;2023-10-13T03:06:29;13.70;99.90
9403;DHT22;4741;49.834;10.740;2023-10-13T03:11:45;12.90;99.90
9403;DHT22;4741;49.834;10.740;2023-10-13T03:14:19;13.70;99.90
9403;DHT22;4741;49.834;10.740;2023-10-13T03:17:02;13.20;99.90
9403;DHT22;4741;49.834;10.740;2023-10-13T03:19:33;13.90;99.90
9403;DHT22;4741;49.834;10.740;2023-10-13T03:22:04;13.30;99.90
9403;DHT22;4741;49.834;10.740;2023-10-13T03:24:54;14.70;99.90
9403;DHT22;4741;49.834;10.740;2023-10-13T03:27:22;13.30;99.90
9403;DHT22;4741;49.834;10.740;2023-10-13T03:30:05;13.80;99.90
9403;DHT22;4741;49.834;10.740;2023-10-13T03:32:37;14.00;99.90
9403;DHT22;4741;49.834;10.740;2023-10-13T03:35:15;13.80;99.90
9403;DHT22;4741;49.834;10.740;2023-10-13T03:37:51;14.10;99.90
9403;DHT22;4741;49.834;10.740;2023-10-13T03:40:18;14.00;99.90
9403;DHT22;4741;49.834;10.740;2023-10-13T03:42:49;14.10;99.90
9403;DHT22;4741;49.834;10.740;2023-10-13T03:45:32;14.00;99.90
9403;DHT22;4741;49.834;10.740;2023-10-13T03:48:06;14.00;99.90
9403;DHT22;4741;49.834;10.740;2023-10-13T03:50:39;14.00;99.90
9403;DHT22;4741;49.834;10.740;2023-10-13T03:53:24;13.30;99.90
9403;DHT22;4741;49.834;10.740;2023-10-13T03:55:52;13.60;99.90
9403;DHT22;4741;49.834;10.740;2023-10-13T03:58:35;13.70;99.90
9403;DHT22;4741;49.834;10.740;2023-10-13T04:01:03;13.70;99.90
9403;DHT22;4741;49.834;10.740;2023-10-13T04:03:30;13.70;99.90
9403;DHT22;4741;49.834;10.740;2023-10-13T04:06:09;13.80;99.90
9403;DHT22;4741;49.834;10.740;2023-10-13T04:08:43;13.80;99.90
9403;DHT22;4741;49.834;10.740;2023-10-13T04:11:09;13.80;99.90
9403;DHT22;4741;49.834;10.740;2023-10-13T04:13:55;13.90;99.90
9403;DHT22;4741;49.834;10.740;2023-10-13T04:16:40;14.10;99.90
9403;DHT22;4741;49.834;10.740;2023-10-13T04:19:18;14.10;99.90
9403;DHT22;4741;49.834;10.740;2023-10-13T04:21:53;14.10;99.90
9403;DHT22;4741;49.834;10.740;2023-10-13T04:24:25;14.10;99.90
9403;DHT22;4741;49.834;10.740;2023-10-13T04:27:03;14.30;99.90
9403;DHT22;4741;49.834;10.740;2023-10-13T04:29:56;14.10;99.90
9403;DHT22;4741;49.834;10.740;2023-10-13T04:32:34;14.20;99.90
9403;DHT22;4741;49.834;10.740;2023-10-13T04:35:32;14.10;99.90
9403;DHT22;4741;49.834;10.740;2023-10-13T04:38:02;14.20;99.90
9403;DHT22;4741;49.834;10.740;2023-10-13T04:40:44;14.10;99.90
9403;DHT22;4741;49.834;10.740;2023-10-13T04:43:25;13.90;99.90
9403;DHT22;4741;49.834;10.740;2023-10-13T04:46:21;14.10;99.90
9403;DHT22;4741;49.834;10.740;2023-10-13T04:49:07;13.60;99.90
9403;DHT22;4741;49.834;10.740;2023-10-13T04:51:56;13.70;99.90
9403;DHT22;4741;49.834;10.740;2023-10-13T04:54:26;13.80;99.90
9403;DHT22;4741;49.834;10.740;2023-10-13T04:56:55;13.70;99.90
9403;DHT22;4741;49.834;10.740;2023-10-13T04:59:41;13.20;99.90
9403;DHT22;4741;49.834;10.740;2023-10-13T05:02:26;13.90;99.90
9403;DHT22;4741;49.834;10.740;2023-10-13T05:05:02;13.50;99.90
9403;DHT22;4741;49.834;10.740;2023-10-13T05:07:48;13.70;99.90
9403;DHT22;4741;49.834;10.740;2023-10-13T05:10:34;13.80;99.90
9403;DHT22;4741;49.834;10.740;2023-10-13T05:13:19;13.80;99.90
9403;DHT22;4741;49.834;10.740;2023-10-13T05:16:04;13.70;99.90
9403;DHT22;4741;49.834;10.740;2023-10-13T05:18:49;13.80;99.90
9403;DHT22;4741;49.834;10.740;2023-10-13T05:21:35;13.70;99.90
9403;DHT22;4741;49.834;10.740;2023-10-13T05:24:23;13.80;99.90
9403;DHT22;4741;49.834;10.740;2023-10-13T05:27:08;13.50;99.90
9403;DHT22;4741;49.834;10.740;2023-10-13T05:29:53;13.70;99.90
9403;DHT22;4741;49.834;10.740;2023-10-13T05:32:39;13.70;99.90
9403;DHT22;4741;49.834;10.740;2023-10-13T05:35:25;13.60;99.90
9403;DHT22;4741;49.834;10.740;2023-10-13T05:38:10;13.80;99.90
9403;DHT22;4741;49.834;10.740;2023-10-13T05:41:02;13.80;99.90
9403;DHT22;4741;49.834;10.740;2023-10-13T05:43:51;13.80;99.90
9403;DHT22;4741;49.834;10.740;2023-10-13T05:46:36;13.80;99.90
9403;DHT22;4741;49.834;10.740;2023-10-13T05:49:07;13.80;99.90
9403;DHT22;4741;49.834;10.740;2023-10-13T05:51:44;13.80;99.90
9403;DHT22;4741;49.834;10.740;2023-10-13T05:54:34;13.90;99.90
9403;DHT22;4741;49.834;10.740;2023-10-13T05:57:19;13.90;99.90
9403;DHT22;4741;49.834;10.740;2023-10-13T06:00:05;13.90;99.90
9403;DHT22;4741;49.834;10.740;2023-10-13T06:02:50;14.00;99.90
9403;DHT22;4741;49.834;10.740;2023-10-13T06:05:35;13.90;99.90
9403;DHT22;4741;49.834;10.740;2023-10-13T06:08:20;13.90;99.90
9403;DHT22;4741;49.834;10.740;2023-10-13T06:11:06;14.00;99.90
9403;DHT22;4741;49.834;10.740;2023-10-13T06:13:51;14.00;99.90
9403;DHT22;4741;49.834;10.740;2023-10-13T06:16:36;14.10;99.90
9403;DHT22;4741;49.834;10.740;2023-10-13T06:19:21;14.10;99.90
9403;DHT22;4741;49.834;10.740;2023-10-13T06:22:14;14.20;99.90
9403;DHT22;4741;49.834;10.740;2023-10-13T06:24:59;14.10;99.90
9403;DHT22;4741;49.834;10.740;2023-10-13T06:27:44;14.00;99.90
9403;DHT22;4741;49.834;10.740;2023-10-13T06:30:40;13.30;99.90
9403;DHT22;4741;49.834;10.740;2023-10-13T06:33:07;14.30;99.90
9403;DHT22;4741;49.834;10.740;2023-10-13T06:35:34;13.90;99.90
9403;DHT22;4741;49.834;10.740;2023-10-13T06:38:05;13.90;99.90
9403;DHT22;4741;49.834;10.740;2023-10-13T06:40:36;13.70;99.90
9403;DHT22;4741;49.834;10.740;2023-10-13T06:43:04;13.60;99.90
9403;DHT22;4741;49.834;10.740;2023-10-13T06:45:44;14.40;99.90
9403;DHT22;4741;49.834;10.740;2023-10-13T06:48:24;14.70;99.90
9403;DHT22;4741;49.834;10.740;2023-10-13T06:50:51;14.60;99.90
9403;DHT22;4741;49.834;10.740;2023-10-13T06:53:22;14.80;99.90
9403;DHT22;4741;49.834;10.740;2023-10-13T06:55:50;14.90;99.90
9403;DHT22;4741;49.834;10.740;2023-10-13T06:58:19;15.00;99.90
9403;DHT22;4741;49.834;10.740;2023-10-13T07:00:50;15.20;99.90
9403;DHT22;4741;49.834;10.740;2023-10-13T07:03:24;15.40;99.90
9403;DHT22;4741;49.834;10.740;2023-10-13T07:05:51;15.50;99.90
9403;DHT22;4741;49.834;10.740;2023-10-13T07:08:18;15.50;99.90
9403;DHT22;4741;49.834;10.740;2023-10-13T07:10:48;15.60;99.90
9403;DHT22;4741;49.834;10.740;2023-10-13T07:13:15;15.60;99.90
9403;DHT22;4741;49.834;10.740;2023-10-13T07:15:43;15.60;99.90
9403;DHT22;4741;49.834;10.740;2023-10-13T07:18:14;15.70;99.90
9403;DHT22;4741;49.834;10.740;2023-10-13T07:20:49;15.90;99.90
9403;DHT22;4741;49.834;10.740;2023-10-13T07:23:15;16.20;99.90
9403;DHT22;4741;49.834;10.740;2023-10-13T07:25:53;15.90;99.90
9403;DHT22;4741;49.834;10.740;2023-10-13T07:28:30;15.80;99.90
9403;DHT22;4741;49.834;10.740;2023-10-13T07:30:57;15.90;99.90
9403;DHT22;4741;49.834;10.740;2023-10-13T07:33:27;16.00;99.90
9403;DHT22;4741;49.834;10.740;2023-10-13T07:36:03;16.10;99.90
9403;DHT22;4741;49.834;10.740;2023-10-13T07:38:56;16.00;99.90
9403;DHT22;4741;49.834;10.740;2023-10-13T07:41:59;16.00;99.90
9403;DHT22;4741;49.834;10.740;2023-10-13T07:44:33;16.00;99.90
9403;DHT22;4741;49.834;10.740;2023-10-13T07:47:00;15.80;99.90
9403;DHT22;4741;49.834;10.740;2023-10-13T07:49:30;15.50;99.90
9403;DHT22;4741;49.834;10.740;2023-10-13T07:52:01;15.70;99.90
9403;DHT22;4741;49.834;10.740;2023-10-13T07:54:42;15.90;99.90
9403;DHT22;4741;49.834;10.740;2023-10-13T07:57:09;15.80;99.90
9403;DHT22;4741;49.834;10.740;2023-10-13T07:59:36;16.10;99.90
9403;DHT22;4741;49.834;10.740;2023-10-13T08:02:14;16.50;99.90
9403;DHT22;4741;49.834;10.740;2023-10-13T08:07:27;17.10;99.90
9403;DHT22;4741;49.834;10.740;2023-10-13T08:12:25;17.40;99.90
9403;DHT22;4741;49.834;10.740;2023-10-13T08:17:38;17.60;99.90
9403;DHT22;4741;49.834;10.740;2023-10-13T08:20:10;17.00;99.90
9403;DHT22;4741;49.834;10.740;2023-10-13T08:22:43;17.50;99.90
9403;DHT22;4741;49.834;10.740;2023-10-13T08:25:15;17.80;99.90
9403;DHT22;4741;49.834;10.740;2023-10-13T08:27:47;17.80;99.90
9403;DHT22;4741;49.834;10.740;2023-10-13T08:30:52;17.80;99.90
9403;DHT22;4741;49.834;10.740;2023-10-13T08:33:20;18.60;99.90
9403;DHT22;4741;49.834;10.740;2023-10-13T08:35:52;18.10;99.90
9403;DHT22;4741;49.834;10.740;2023-10-13T08:38:32;18.20;99.90
9403;DHT22;4741;49.834;10.740;2023-10-13T08:41:17;18.20;99.90
9403;DHT22;4741;49.834;10.740;2023-10-13T08:43:44;18.10;99.90
9403;DHT22;4741;49.834;10.740;2023-10-13T08:46:20;18.70;99.90
9403;DHT22;4741;49.834;10.740;2023-10-13T08:48:58;18.80;99.90
9403;DHT22;4741;49.834;10.740;2023-10-13T08:51:35;18.90;99.90
9403;DHT22;4741;49.834;10.740;2023-10-13T08:54:12;18.50;99.90
9403;DHT22;4741;49.834;10.740;2023-10-13T08:56:47;20.60;99.90
9403;DHT22;4741;49.834;10.740;2023-10-13T08:59:21;20.20;99.90
9403;DHT22;4741;49.834;10.740;2023-10-13T09:02:14;18.20;99.90
9403;DHT22;4741;49.834;10.740;2023-10-13T09:04:48;18.40;99.90
9403;DHT22;4741;49.834;10.740;2023-10-13T09:07:26;19.40;99.90
9403;DHT22;4741;49.834;10.740;2023-10-13T09:09:53;20.10;99.90
9403;DHT22;4741;49.834;10.740;2023-10-13T09:12:24;20.00;99.90
9403;DHT22;4741;49.834;10.740;2023-10-13T09:15:03;19.00;99.90
9403;DHT22;4741;49.834;10.740;2023-10-13T09:17:51;19.70;99.90
9403;DHT22;4741;49.834;10.740;2023-10-13T09:20:27;19.80;99.90
9403;DHT22;4741;49.834;10.740;2023-10-13T09:23:15;19.90;99.90
9403;DHT22;4741;49.834;10.740;2023-10-13T09:25:51;20.00;99.90
9403;DHT22;4741;49.834;10.740;2023-10-13T09:28:27;20.10;99.90
9403;DHT22;4741;49.834;10.740;2023-10-13T09:30:55;20.30;99.90
9403;DHT22;4741;49.834;10.740;2023-10-13T09:33:26;20.30;99.90
9403;DHT22;4741;49.834;10.740;2023-10-13T09:35:59;20.30;99.90
9403;DHT22;4741;49.834;10.740;2023-10-13T09:40:54;20.70;99.90
9403;DHT22;4741;49.834;10.740;2023-10-13T10:26:18;22.40;99.90
9403;DHT22;4741;49.834;10.740;2023-10-13T10:32:57;22.40;99.90
9403;DHT22;4741;49.834;10.740;2023-10-13T10:35:28;22.70;99.90
9403;DHT22;4741;49.834;10.740;2023-10-13T10:37:56;22.70;99.90
9403;DHT22;4741;49.834;10.740;2023-10-13T10:40:59;23.50;99.90
9403;DHT22;4741;49.834;10.740;2023-10-13T10:43:28;22.80;99.90
9403;DHT22;4741;49.834;10.740;2023-10-13T10:45:59;23.10;99.90
9403;DHT22;4741;49.834;10.740;2023-10-13T10:48:26;23.10;99.90
9403;DHT22;4741;49.834;10.740;2023-10-13T10:53:34;23.40;99.90
9403;DHT22;4741;49.834;10.740;2023-10-13T10:56:13;23.90;99.90
9403;DHT22;4741;49.834;10.740;2023-10-13T11:01:14;24.30;99.90
9403;DHT22;4741;49.834;10.740;2023-10-13T11:08:46;24.20;99.90
9403;DHT22;4741;49.834;10.740;2023-10-13T11:11:28;24.20;99.90
9403;DHT22;4741;49.834;10.740;2023-10-13T11:13:57;23.70;99.90
9403;DHT22;4741;49.834;10.740;2023-10-13T11:16:47;23.70;99.90
9403;DHT22;4741;49.834;10.740;2023-10-13T11:19:37;23.80;99.90
9403;DHT22;4741;49.834;10.740;2023-10-13T11:22:14;23.70;99.90
9403;DHT22;4741;49.834;10.740;2023-10-13T11:24:59;23.80;99.90
9403;DHT22;4741;49.834;10.740;2023-10-13T11:27:29;24.60;99.90
9403;DHT22;4741;49.834;10.740;2023-10-13T11:30:11;23.90;99.90
9403;DHT22;4741;49.834;10.740;2023-10-13T11:32:41;23.80;99.90
9403;DHT22;4741;49.834;10.740;2023-10-13T11:35:11;24.60;99.40
9403;DHT22;4741;49.834;10.740;2023-10-13T11:37:47;24.00;99.00
9403;DHT22;4741;49.834;10.740;2023-10-13T11:40:23;24.60;98.90
9403;DHT22;4741;49.834;10.740;2023-10-13T11:43:09;24.30;97.40
9403;DHT22;4741;49.834;10.740;2023-10-13T11:45:41;24.10;97.60
9403;DHT22;4741;49.834;10.740;2023-10-13T11:48:44;24.20;96.80
9403;DHT22;4741;49.834;10.740;2023-10-13T11:51:11;25.10;97.20
9403;DHT22;4741;49.834;10.740;2023-10-13T11:53:50;24.70;97.30
9403;DHT22;4741;49.834;10.740;2023-10-13T11:56:20;25.70;98.10
9403;DHT22;4741;49.834;10.740;2023-10-13T11:58:47;24.70;97.40
9403;DHT22;4741;49.834;10.740;2023-10-13T12:01:15;25.20;97.50
9403;DHT22;4741;49.834;10.740;2023-10-13T12:03:42;25.40;98.20
9403;DHT22;4741;49.834;10.740;2023-10-13T12:06:28;24.40;97.60
9403;DHT22;4741;49.834;10.740;2023-10-13T12:09:08;26.50;97.30
9403;DHT22;4741;49.834;10.740;2023-10-13T12:11:47;25.80;99.90
9403;DHT22;4741;49.834;10.740;2023-10-13T12:14:15;26.90;95.50
9403;DHT22;4741;49.834;10.740;2023-10-13T12:16:49;26.40;94.50
9403;DHT22;4741;49.834;10.740;2023-10-13T12:21:45;24.00;93.70
9403;DHT22;4741;49.834;10.740;2023-10-13T12:24:14;25.50;93.80
9403;DHT22;4741;49.834;10.740;2023-10-13T12:27:07;26.10;94.30
9403;DHT22;4741;49.834;10.740;2023-10-13T12:29:46;26.90;93.90
9403;DHT22;4741;49.834;10.740;2023-10-13T12:32:13;26.70;93.00
9403;DHT22;4741;49.834;10.740;2023-10-13T12:34:41;26.50;94.00
9403;DHT22;4741;49.834;10.740;2023-10-13T12:40:03;25.80;92.40
9403;DHT22;4741;49.834;10.740;2023-10-13T12:42:48;25.50;93.40
9403;DHT22;4741;49.834;10.740;2023-10-13T12:45:37;25.60;94.10
9403;DHT22;4741;49.834;10.740;2023-10-13T12:48:23;25.30;99.90
9403;DHT22;4741;49.834;10.740;2023-10-13T13:01:21;25.20;93.30
9403;DHT22;4741;49.834;10.740;2023-10-13T13:03:48;25.20;93.40
9403;DHT22;4741;49.834;10.740;2023-10-13T13:06:19;25.70;93.70
9403;DHT22;4741;49.834;10.740;2023-10-13T13:09:08;25.30;93.20
9403;DHT22;4741;49.834;10.740;2023-10-13T13:11:36;27.60;91.20
9403;DHT22;4741;49.834;10.740;2023-10-13T13:14:09;27.30;90.40
9403;DHT22;4741;49.834;10.740;2023-10-13T13:16:36;27.50;90.80
9403;DHT22;4741;49.834;10.740;2023-10-13T13:26:40;26.10;91.50
9403;DHT22;4741;49.834;10.740;2023-10-13T13:29:07;26.00;91.80
9403;DHT22;4741;49.834;10.740;2023-10-13T13:31:37;25.90;92.80
9403;DHT22;4741;49.834;10.740;2023-10-13T13:34:11;25.90;97.40
9403;DHT22;4741;49.834;10.740;2023-10-13T13:36:39;26.30;97.90
9403;DHT22;4741;49.834;10.740;2023-10-13T13:39:11;26.20;99.90
9403;DHT22;4741;49.834;10.740;2023-10-13T13:41:37;26.30;94.10
9403;DHT22;4741;49.834;10.740;2023-10-13T13:44:04;26.40;95.20
9403;DHT22;4741;49.834;10.740;2023-10-13T13:46:41;26.00;94.20
9403;DHT22;4741;49.834;10.740;2023-10-13T13:49:09;25.70;94.60
9403;DHT22;4741;49.834;10.740;2023-10-13T13:51:46;25.80;94.00
9403;DHT22;4741;49.834;10.740;2023-10-13T13:54:19;27.20;92.80
9403;DHT22;4741;49.834;10.740;2023-10-13T13:56:49;26.40;92.00
9403;DHT22;4741;49.834;10.740;2023-10-13T13:59:16;27.70;91.40
9403;DHT22;4741;49.834;10.740;2023-10-13T14:01:46;28.10;90.70
9403;DHT22;4741;49.834;10.740;2023-10-13T14:04:14;31.70;79.40
9403;DHT22;4741;49.834;10.740;2023-10-13T14:14:28;35.10;73.70
9403;DHT22;4741;49.834;10.740;2023-10-13T14:16:55;33.30;90.70
9403;DHT22;4741;49.834;10.740;2023-10-13T14:19:35;31.10;78.40
9403;DHT22;4741;49.834;10.740;2023-10-13T14:22:07;29.80;80.50
9403;DHT22;4741;49.834;10.740;2023-10-13T14:24:34;29.70;81.30
9403;DHT22;4741;49.834;10.740;2023-10-13T14:27:02;30.00;83.10
9403;DHT22;4741;49.834;10.740;2023-10-13T14:29:40;29.50;81.00
9403;DHT22;4741;49.834;10.740;2023-10-13T14:32:09;28.30;84.60
9403;DHT22;4741;49.834;10.740;2023-10-13T14:34:39;27.80;86.60
9403;DHT22;4741;49.834;10.740;2023-10-13T14:37:06;29.70;83.40
9403;DHT22;4741;49.834;10.740;2023-10-13T14:39:33;31.80;78.90
9403;DHT22;4741;49.834;10.740;2023-10-13T14:42:02;32.70;78.80
9403;DHT22;4741;49.834;10.740;2023-10-13T14:44:29;33.50;74.10
9403;DHT22;4741;49.834;10.740;2023-10-13T14:46:56;35.20;92.30
9403;DHT22;4741;49.834;10.740;2023-10-13T14:51:50;33.80;88.80
9403;DHT22;4741;49.834;10.740;2023-10-13T14:54:16;33.30;89.30
9403;DHT22;4741;49.834;10.740;2023-10-13T14:56:43;30.10;78.20
9403;DHT22;4741;49.834;10.740;2023-10-13T14:59:10;28.50;79.40
9403;DHT22;4741;49.834;10.740;2023-10-13T15:01:43;28.10;82.90
9403;DHT22;4741;49.834;10.740;2023-10-13T15:04:10;27.90;85.90
9403;DHT22;4741;49.834;10.740;2023-10-13T15:06:37;27.10;86.90
9403;DHT22;4741;49.834;10.740;2023-10-13T15:09:04;27.10;86.90
9403;DHT22;4741;49.834;10.740;2023-10-13T15:11:37;27.00;88.20
9403;DHT22;4741;49.834;10.740;2023-10-13T15:14:14;26.80;92.20
9403;DHT22;4741;49.834;10.740;2023-10-13T15:16:41;26.40;90.40
9403;DHT22;4741;49.834;10.740;2023-10-13T15:19:10;26.90;90.60
9403;DHT22;4741;49.834;10.740;2023-10-13T15:21:37;27.00;90.40
9403;DHT22;4741;49.834;10.740;2023-10-13T15:24:06;25.80;91.10
9403;DHT22;4741;49.834;10.740;2023-10-13T15:26:58;25.60;92.00
9403;DHT22;4741;49.834;10.740;2023-10-13T15:29:35;25.60;92.50
9403;DHT22;4741;49.834;10.740;2023-10-13T15:32:03;25.20;92.20
9403;DHT22;4741;49.834;10.740;2023-10-13T15:34:31;25.40;99.90
9403;DHT22;4741;49.834;10.740;2023-10-13T15:36:58;26.20;97.80
9403;DHT22;4741;49.834;10.740;2023-10-13T15:39:25;25.20;97.40
9403;DHT22;4741;49.834;10.740;2023-10-13T15:42:08;26.00;97.20
9403;DHT22;4741;49.834;10.740;2023-10-13T15:44:36;25.50;93.00
9403;DHT22;4741;49.834;10.740;2023-10-13T15:47:03;26.20;94.30
9403;DHT22;4741;49.834;10.740;2023-10-13T15:49:49;24.60;93.00
9403;DHT22;4741;49.834;10.740;2023-10-13T15:52:16;25.40;92.30
9403;DHT22;4741;49.834;10.740;2023-10-13T15:54:43;26.10;92.40
9403;DHT22;4741;49.834;10.740;2023-10-13T15:57:09;26.60;92.70
9403;DHT22;4741;49.834;10.740;2023-10-13T15:59:43;25.10;93.80
9403;DHT22;4741;49.834;10.740;2023-10-13T16:02:12;25.20;97.60
9403;DHT22;4741;49.834;10.740;2023-10-13T16:04:40;23.60;97.00
9403;DHT22;4741;49.834;10.740;2023-10-13T16:07:07;23.50;98.00
9403;DHT22;4741;49.834;10.740;2023-10-13T16:12:02;23.10;99.90
9403;DHT22;4741;49.834;10.740;2023-10-13T16:14:29;22.80;99.90
9403;DHT22;4741;49.834;10.740;2023-10-13T16:17:01;22.50;99.90
9403;DHT22;4741;49.834;10.740;2023-10-13T16:19:31;21.70;99.90
9403;DHT22;4741;49.834;10.740;2023-10-13T16:21:57;21.70;99.90
9403;DHT22;4741;49.834;10.740;2023-10-13T16:24:24;21.70;99.90
9403;DHT22;4741;49.834;10.740;2023-10-13T16:26:51;21.70;99.90
9403;DHT22;4741;49.834;10.740;2023-10-13T16:29:19;21.50;99.90
9403;DHT22;4741;49.834;10.740;2023-10-13T16:31:46;21.40;99.90
9403;DHT22;4741;49.834;10.740;2023-10-13T16:34:14;20.90;99.90
9403;DHT22;4741;49.834;10.740;2023-10-13T16:39:12;21.30;99.90
9403;DHT22;4741;49.834;10.740;2023-10-13T16:41:43;20.50;99.90
9403;DHT22;4741;49.834;10.740;2023-10-13T16:44:11;20.40;99.90
9403;DHT22;4741;49.834;10.740;2023-10-13T16:46:38;20.80;99.90
9403;DHT22;4741;49.834;10.740;2023-10-13T16:49:06;20.70;99.90
9403;DHT22;4741;49.834;10.740;2023-10-13T16:51:34;20.60;99.90
9403;DHT22;4741;49.834;10.740;2023-10-13T16:54:01;20.80;99.90
9403;DHT22;4741;49.834;10.740;2023-10-13T16:56:27;20.60;99.90
9403;DHT22;4741;49.834;10.740;2023-10-13T17:01:21;20.50;99.90
9403;DHT22;4741;49.834;10.740;2023-10-13T17:03:48;20.80;99.90
9403;DHT22;4741;49.834;10.740;2023-10-13T17:06:18;21.30;99.90
9403;DHT22;4741;49.834;10.740;2023-10-13T17:08:45;20.30;99.90
9403;DHT22;4741;49.834;10.740;2023-10-13T17:11:12;19.40;99.90
9403;DHT22;4741;49.834;10.740;2023-10-13T17:13:41;20.30;99.90
9403;DHT22;4741;49.834;10.740;2023-10-13T17:18:40;20.30;99.90
9403;DHT22;4741;49.834;10.740;2023-10-13T17:21:19;20.00;99.90
9403;DHT22;4741;49.834;10.740;2023-10-13T17:23:49;20.20;99.90
9403;DHT22;4741;49.834;10.740;2023-10-13T17:26:21;19.90;99.90
9403;DHT22;4741;49.834;10.740;2023-10-13T17:28:50;20.10;99.90
9403;DHT22;4741;49.834;10.740;2023-10-13T17:31:16;20.10;99.90
9403;DHT22;4741;49.834;10.740;2023-10-13T17:33:43;19.70;99.90
9403;DHT22;4741;49.834;10.740;2023-10-13T17:36:12;20.10;99.90
9403;DHT22;4741;49.834;10.740;2023-10-13T17:38:38;19.60;99.90
9403;DHT22;4741;49.834;10.740;2023-10-13T17:41:05;19.40;99.90
9403;DHT22;4741;49.834;10.740;2023-10-13T17:46:09;19.10;99.90
9403;DHT22;4741;49.834;10.740;2023-10-13T17:48:37;18.90;99.90
9403;DHT22;4741;49.834;10.740;2023-10-13T17:51:08;19.60;99.90
9403;DHT22;4741;49.834;10.740;2023-10-13T17:53:35;18.60;99.90
9403;DHT22;4741;49.834;10.740;2023-10-13T17:56:05;18.50;99.90
9403;DHT22;4741;49.834;10.740;2023-10-13T17:58:39;18.50;99.90
9403;DHT22;4741;49.834;10.740;2023-10-13T18:01:07;18.50;99.90
9403;DHT22;4741;49.834;10.740;2023-10-13T18:03:34;18.40;99.90
9403;DHT22;4741;49.834;10.740;2023-10-13T18:06:01;18.10;99.90
9403;DHT22;4741;49.834;10.740;2023-10-13T18:08:28;18.30;99.90
9403;DHT22;4741;49.834;10.740;2023-10-13T18:10:54;18.50;99.90
9403;DHT22;4741;49.834;10.740;2023-10-13T18:13:22;18.20;99.90
9403;DHT22;4741;49.834;10.740;2023-10-13T18:15:49;18.20;99.90
9403;DHT22;4741;49.834;10.740;2023-10-13T18:18:16;18.10;99.90
9403;DHT22;4741;49.834;10.740;2023-10-13T18:20:43;18.00;99.90
9403;DHT22;4741;49.834;10.740;2023-10-13T18:23:09;18.00;99.90